• Join FlightAware (Why Join?)
  • Login
  • US Flag 
10:16PM EST


 

Airport Tracker/Info


-or-


 

Live Flight TrackerFlight Track Log ✈ N851MA ✈ 14-Jul-2013 ✈ KCOD - KUAO

Flight Track Log - Related Links

Times and Time Zones

All times are in EDT time to prevent confusion due to time zone crossing. See the N851MA flight status page for this flight to view local times or setup timezone preferences in your user account.

Time Position Orientation Groundspeed Altitude Reporting Facility
EDT Latitude Longitude Course Direction KTS MPH feet Rate Location/Type
01:43PM 44.6444 -109.0356 281° West 183 211 9,100  Level Salt Lake Center
01:45PM 44.6467 -109.1033 273° West 177 204 10,600 1,500 Climbing Salt Lake Center
01:46PM 44.6547 -109.1714 279° West 176 203 12,300 1,560 Climbing Salt Lake Center
01:47PM 44.6639 -109.2408 281° West 179 206 13,900 1,500 Climbing Salt Lake Center
01:48PM 44.6853 -109.3147 292° West 171 197 15,500 1,440 Climbing Salt Lake Center
01:49PM 44.5631 -109.4086 281° West  Level FlightAware Approximate
01:49PM 44.7153 -109.3747 305° West 182 209 16,900  Level Salt Lake Center
01:50PM 44.7333 -109.4367 292° West 178 205 17,900 1,080 Climbing Salt Lake Center
01:51PM 44.7386 -109.5042 276° West 174 200 19,200 1,140 Climbing Salt Lake Center
01:52PM 44.7444 -109.5742 277° West 180 207 20,300 1,020 Climbing Salt Lake Center
01:53PM 44.7514 -109.6458 278° West 184 212 21,400 1,140 Climbing Salt Lake Center
01:54PM 44.7583 -109.7344 276° West 191 220 22,700 1,200 Climbing Salt Lake Center
01:55PM 44.7661 -109.8081 278° West 191 220 23,900 960 Climbing Salt Lake Center
01:56PM 44.7744 -109.8878 278° West 197 227 24,800 780 Climbing Salt Lake Center
01:57PM 44.7822 -109.9608 279° West 198 228 25,600 720 Climbing Salt Lake Center
01:58PM 44.7897 -110.0475 277° West 200 230 26,400 720 Climbing Salt Lake Center
01:59PM 44.7969 -110.1222 278° West 201 231 27,100 660 Climbing Salt Lake Center
02:00PM 44.8044 -110.2119 277° West 208 239 27,800 540 Climbing Salt Lake Center
02:01PM 44.8131 -110.2847 279° West 200 230 28,300 540 Climbing Salt Lake Center
02:02PM 44.8194 -110.3744 276° West 205 236 29,000 600 Climbing Salt Lake Center
02:03PM 44.8272 -110.4506 278° West 205 236 29,600 300 Climbing Salt Lake Center
02:04PM 44.8339 -110.5403 276° West 207 238 29,700  Climbing Salt Lake Center
02:05PM 44.8397 -110.6231 276° West 218 251 29,700  Level Salt Lake Center
02:06PM 44.8483 -110.7125 278° West 234 269 29,700 120 Level Salt Lake Center
02:07PM 44.8586 -110.8172 278° West 241 277 30,000 120 Climbing Salt Lake Center
02:08PM 44.8653 -110.9064 276° West 241 277 30,000  Level Salt Lake Center
02:09PM 44.8747 -111.0139 277° West 246 283 30,000  Level Salt Lake Center
02:10PM 44.8825 -111.1056 277° West 248 285 30,000  Level Salt Lake Center
02:11PM 44.8917 -111.2133 277° West 249 287 30,000  Level Salt Lake Center
02:12PM 44.8983 -111.3069 276° West 251 289 30,000  Level Salt Lake Center
02:13PM 44.9078 -111.4153 277° West 252 290 30,000  Level Salt Lake Center
02:14PM 44.9150 -111.5083 276° West 250 288 30,000  Level Salt Lake Center
02:16PM 44.9233 -111.6164 276° West 250 288 30,000  Level Salt Lake Center
02:17PM 44.9311 -111.7097 277° West 250 288 30,000  Level Salt Lake Center
02:18PM 44.9392 -111.8181 276° West 250 288 30,000  Level Salt Lake Center
02:19PM 44.9453 -111.9103 275° West 248 285 30,000  Level Salt Lake Center
02:20PM 44.9536 -112.0186 276° West 250 288 30,000  Level Salt Lake Center
02:21PM 44.9600 -112.1125 276° West 250 288 30,000  Level Salt Lake Center
02:22PM 44.9686 -112.2217 276° West 250 288 30,000  Level Salt Lake Center
02:23PM 44.9747 -112.3156 275° West 251 289 30,000  Level Salt Lake Center
02:24PM 44.9844 -112.4286 277° West 259 298 30,000  Level Salt Lake Center
02:25PM 44.9906 -112.5239 275° West 256 295 30,000  Level Salt Lake Center
02:26PM 44.9978 -112.6364 275° West 257 296 30,000  Level Salt Lake Center
02:27PM 45.0047 -112.7333 276° West 259 298 30,000  Level Salt Lake Center
02:28PM 45.0136 -112.8464 276° West 259 298 30,000  Level Salt Lake Center
02:29PM 45.0186 -112.9422 274° West 257 296 30,000  Level Salt Lake Center
02:30PM 45.0267 -113.0542 276° West 256 295 30,000  Level Salt Lake Center
02:31PM 45.0336 -113.1494 276° West 255 293 30,000  Level Salt Lake Center
02:32PM 45.0381 -113.2469 274° West 258 297 30,000  Level Salt Lake Center
02:33PM 45.0461 -113.3583 276° West 256 295 30,000  Level Salt Lake Center
02:34PM 45.0517 -113.4550 275° West 258 297 30,000  Level Salt Lake Center
02:35PM 45.0583 -113.5667 275° West 256 295 30,000  Level Salt Lake Center
02:36PM 45.0661 -113.6619 277° West 255 293 30,000  Level Salt Lake Center
02:37PM 45.0728 -113.7725 275° West 253 291 30,000  Level Salt Lake Center
02:38PM 45.0767 -113.8703 273° West 257 296 30,000  Level Salt Lake Center
02:39PM 45.0847 -113.9819 276° West 253 291 30,000  Level Salt Lake Center
02:40PM 45.0900 -114.0783 274° West 255 293 30,000  Level Salt Lake Center
02:41PM 45.0961 -114.1911 274° West 257 296 30,000  Level Salt Lake Center
02:42PM 45.1000 -114.2872 273° West 256 295 30,000  Level Salt Lake Center
02:43PM 45.1058 -114.3850 275° West 260 299 30,000  Level Salt Lake Center
02:44PM 45.1136 -114.5000 276° West 263 303 30,000  Level Salt Lake Center
02:46PM 45.1175 -114.5972 273° West 260 299 30,000  Level Salt Lake Center
02:47PM 45.1236 -114.7097 274° West 257 296 30,000  Level Salt Lake Center
02:48PM 45.1289 -114.8064 274° West 257 296 30,000  Level Salt Lake Center
02:49PM 45.1339 -114.9214 274° West 261 300 30,000  Level Salt Lake Center
02:50PM 45.1381 -115.0178 274° West 258 297 30,000  Level Salt Lake Center
02:51PM 45.1436 -115.1317 274° West 259 298 30,000  Level Salt Lake Center
02:52PM 45.1497 -115.2308 275° West 263 303 30,000  Level Salt Lake Center
02:53PM 45.1542 -115.3469 273° West 265 305 30,000  Level Salt Lake Center
02:54PM 45.1592 -115.4450 274° West 263 303 30,000  Level Salt Lake Center
02:55PM 45.1639 -115.5617 273° West 265 305 30,000  Level Salt Lake Center
02:56PM 45.1678 -115.6444 274° West 263 303 30,000  Level Seattle Center
02:57PM 45.1733 -115.7594 274° West 262 302 30,000  Level Seattle Center
02:58PM 45.1761 -115.8583 272° West 263 303 30,000  Level Seattle Center
02:59PM 45.1819 -115.9739 274° West 264 304 30,000  Level Seattle Center
03:00PM 45.1856 -116.0731 273° West 264 304 30,000  Level Seattle Center
03:01PM 45.1892 -116.1722 273° West 264 304 30,000  Level Seattle Center
03:02PM 45.1922 -116.2878 272° West 264 304 30,000  Level Seattle Center
03:03PM 45.1972 -116.3872 274° West 264 304 30,000  Level Seattle Center
03:04PM 45.2008 -116.5000 273° West 259 298 30,000  Level Seattle Center
03:05PM 45.2039 -116.6000 273° West 263 303 30,000  Level Seattle Center
03:06PM 45.2075 -116.7189 273° West 268 308 30,000  Level Seattle Center
03:07PM 45.2103 -116.8181 272° West 265 305 30,000  Level Seattle Center
03:08PM 45.2144 -116.9181 273° West 265 305 30,000  Level Seattle Center
03:09PM 45.2172 -117.0342 272° West 265 305 30,000  Level Seattle Center
03:10PM 45.2197 -117.1336 272° West 264 304 30,000  Level Seattle Center
03:11PM 45.2228 -117.2508 272° West 267 307 30,000  Level Seattle Center
03:12PM 45.2264 -117.3508 273° West 267 307 30,000  Level Seattle Center
03:13PM 45.2292 -117.4586 272° West 261 300 30,000  Level Seattle Center
03:14PM 45.2317 -117.5631 272° West 264 304 30,000  Level Seattle Center
03:15PM 45.2344 -117.6711 272° West 273 314 30,000  Level Seattle Center
03:16PM 45.2372 -117.7736 272° West 264 304 30,000  Level Seattle Center
03:17PM 45.2394 -117.8814 272° West 272 313 30,000  Level Seattle Center
03:18PM 45.2428 -117.9839 273° West 262 302 30,000  Level Seattle Center
03:19PM 45.2428 -118.0889 270° West 267 307 30,000  Level Seattle Center
03:20PM 45.2467 -118.2169 273° West 270 311 30,000  Level Seattle Center
03:21PM 45.2494 -118.3233 272° West 271 312 30,000  Level Seattle Center
03:22PM 45.2514 -118.4278 272° West 267 307 30,000  Level Seattle Center
03:23PM 45.2522 -118.5331 271° West 268 308 30,000  Level Seattle Center
03:24PM 45.2550 -118.6383 272° West 268 308 30,000  Level Seattle Center
03:25PM 45.2569 -118.7447 272° West 270 311 30,000  Level Seattle Center
03:26PM 45.2572 -118.8508 270° West 269 310 30,000  Level Seattle Center
03:27PM 45.2597 -118.9564 272° West 268 308 30,000  Level Seattle Center
03:29PM 45.2614 -119.0836 271° West 269 310 30,000  Level Seattle Center
03:30PM 45.2625 -119.1900 271° West 272 313 30,000  Level Seattle Center
03:31PM 45.2639 -119.2981 271° West 273 314 30,000 -60 Level Seattle Center
03:32PM 45.2650 -119.4056 271° West 275 316 29,900 -120 Descending Seattle Center
03:33PM 45.2681 -119.5139 272° West 276 318 29,800 -60 Descending Seattle Center
03:34PM 45.2842 -119.6206 282° West 277 319 29,800 -420 Level Seattle Center
03:35PM 45.2953 -119.7311 278° West 284 327 29,000 -960 Descending Seattle Center
03:36PM 45.3144 -119.8703 281° West 298 343 27,900 -960 Descending Seattle Center
03:37PM 45.3292 -119.9881 280° West 303 349 27,100 -840 Descending Seattle Center
03:38PM 45.3442 -120.1069 280° West 307 353 26,200 -900 Descending Seattle Center
03:39PM 45.3586 -120.2244 280° West 305 351 25,300 -900 Descending Seattle Center
03:40PM 45.3719 -120.3406 279° West 301 346 24,400 -660 Descending Seattle Center
03:41PM 45.3858 -120.4533 280° West 294 338 24,000 -240 Descending Seattle Center
03:42PM 45.4000 -120.5603 281° West 283 326 24,000  Level Seattle Center
03:43PM 45.4125 -120.6872 278° West 274 315 24,000  Level Seattle Center
03:44PM 45.4267 -120.7928 281° West 273 314 24,100  Climbing Seattle Center
03:45PM 45.4392 -120.8989 280° West 273 314 24,000 -60 Descending Seattle Center
03:46PM 45.4508 -121.0078 279° West 276 318 24,000 -540 Level Seattle Center
03:47PM 45.4636 -121.1186 279° West 282 325 23,000 -1,140 Descending Seattle Center
03:48PM 45.4772 -121.2328 280° West 292 336 21,800 -1,380 Descending Seattle Center
03:49PM 45.4897 -121.3450 279° West 290 334 20,200 -1,980 Descending Seattle Center
03:50PM 45.4994 -121.4292 279° West 284 327 18,700 -2,100 Descending Seattle Center
03:51PM 45.5156 -121.5769 279° West 274 315 16,100 -1,140 Descending Seattle Center
03:52PM 45.5286 -121.6797 280° West 233 268 16,000 -120 Descending Seattle Center
03:54PM 45.5353 -121.8217 284° West  Level FlightAware Approximate
04:01PM 45.6271 -122.4864 199° South  Level FlightAware Approximate
04:02PM 45.5647 -122.5265 208° Southwest  Level FlightAware Approximate
04:03PM 45.5039 -122.5721 208° Southwest  Level FlightAware Approximate
04:04PM 45.4445 -122.6208 208° Southwest  Level FlightAware Approximate
04:05PM 45.3838 -122.6663 208° Southwest  Level FlightAware Approximate
04:06PM 45.3206 -122.7043 203° Southwest  Level FlightAware Approximate
04:07PM 45.2591 -122.7474 208° Southwest  Level FlightAware Approximate
04:08PM 45.2471 -122.7701 208° Southwest  Level Estimated
04:09PM 45.2471 -122.7701 208° Southwest  Level Estimated
04:10PM 45.2471 -122.7701 208° Southwest  Level Estimated
04:11PM 45.2471 -122.7701 208° Southwest  Level Estimated
04:12PM 45.2471 -122.7701 208° Southwest  Level Estimated
04:13PM 45.2471 -122.7701 208° Southwest  Level Estimated
04:14PM 45.2471 -122.7701 208° Southwest  Level Estimated
04:15PM 45.2471 -122.7701 208° Southwest  Level Estimated
04:16PM 45.2471 -122.7701 208° Southwest  Level Estimated
04:17PM 45.2471 -122.7701 208° Southwest  Level Estimated
04:18PM 45.2471 -122.7701 208° Southwest  Level Estimated
04:19PM 45.2471 -122.7701 208° Southwest  Level Estimated
04:20PM 45.2471 -122.7701 208° Southwest  Level Estimated
04:21PM 45.2471 -122.7701 208° Southwest  Level Estimated
04:22PM 45.2471 -122.7701 208° Southwest  Level Estimated
04:23PM 45.2471 -122.7701 208° Southwest  Level Estimated
04:24PM 45.2471 -122.7701 208° Southwest  Level Estimated
04:25PM 45.2471 -122.7701 208° Southwest  Level Estimated
04:26PM 45.2471 -122.7701 208° Southwest  Level Estimated
04:27PM 45.2471 -122.7701 208° Southwest  Level Estimated